createdAt,value
2018-08-12T00:00:31.615Z,22.80
2018-08-12T00:03:00.293Z,22.80
2018-08-12T00:05:28.666Z,22.70
2018-08-12T00:07:57.095Z,22.70
2018-08-12T00:10:26.166Z,22.70
2018-08-12T00:12:54.597Z,22.60
2018-08-12T00:15:23.535Z,22.60
2018-08-12T00:17:52.091Z,22.60
2018-08-12T00:20:22.890Z,22.50
2018-08-12T00:22:51.756Z,22.50
2018-08-12T00:25:22.696Z,22.50
2018-08-12T00:27:51.066Z,22.50
2018-08-12T00:30:20.046Z,22.50
2018-08-12T00:32:48.450Z,22.50
2018-08-12T00:35:17.984Z,22.50
2018-08-12T00:37:46.533Z,22.40
2018-08-12T00:40:15.914Z,22.30
2018-08-12T00:42:44.893Z,22.30
2018-08-12T00:45:17.244Z,22.30
2018-08-12T00:47:46.101Z,22.20
2018-08-12T00:50:15.212Z,22.20
2018-08-12T00:52:43.667Z,22.10
2018-08-12T00:55:13.903Z,22.10
2018-08-12T00:57:43.175Z,22.00
2018-08-12T01:00:13.971Z,22.00
2018-08-12T01:02:42.482Z,22.00
2018-08-12T01:05:12.808Z,22.00
2018-08-12T01:07:41.877Z,22.00
2018-08-12T01:10:11.154Z,22.00
2018-08-12T01:12:39.527Z,22.00
2018-08-12T01:15:11.986Z,22.00
2018-08-12T01:17:40.423Z,22.00
2018-08-12T01:20:10.535Z,22.00
2018-08-12T01:22:39.770Z,21.90
2018-08-12T01:25:09.255Z,21.90
2018-08-12T01:27:37.640Z,21.90
2018-08-12T01:30:08.454Z,21.90
2018-08-12T01:32:37.117Z,21.90
2018-08-12T01:35:06.680Z,21.80
2018-08-12T01:37:35.165Z,21.80
2018-08-12T01:40:03.910Z,21.80
2018-08-12T01:42:32.230Z,21.80
2018-08-12T01:45:00.568Z,21.70
2018-08-12T01:47:28.922Z,21.80
2018-08-12T01:49:57.491Z,21.70
2018-08-12T01:52:25.989Z,21.70
2018-08-12T01:54:54.469Z,21.80
2018-08-12T01:57:22.970Z,21.70
2018-08-12T01:59:51.484Z,21.70
2018-08-12T02:02:19.976Z,21.60
2018-08-12T02:04:48.315Z,21.60
2018-08-12T02:07:16.646Z,21.60
2018-08-12T02:09:45.078Z,21.60
2018-08-12T02:12:13.519Z,21.50
2018-08-12T02:14:41.986Z,21.60
2018-08-12T02:17:10.820Z,21.50
2018-08-12T02:19:39.304Z,21.50
2018-08-12T02:22:07.707Z,21.50
2018-08-12T02:24:36.070Z,21.40
2018-08-12T02:27:04.506Z,21.40
2018-08-12T02:29:32.875Z,21.30
2018-08-12T02:32:01.330Z,21.30
2018-08-12T02:34:29.664Z,21.30
2018-08-12T02:36:58.011Z,21.30
2018-08-12T02:39:26.547Z,21.20
2018-08-12T02:41:55.199Z,21.20
2018-08-12T02:44:23.738Z,21.20
2018-08-12T02:46:52.206Z,21.10
2018-08-12T02:49:20.737Z,21.00
2018-08-12T02:51:49.137Z,21.00
2018-08-12T02:54:17.658Z,20.90
2018-08-12T02:56:45.983Z,20.90
2018-08-12T02:59:14.436Z,20.90
2018-08-12T03:01:42.771Z,20.80
2018-08-12T03:04:11.231Z,20.80
2018-08-12T03:06:39.531Z,20.90
2018-08-12T03:09:10.870Z,20.80
2018-08-12T03:11:39.239Z,20.80
2018-08-12T03:14:08.275Z,20.70
2018-08-12T03:16:36.616Z,20.70
2018-08-12T03:19:05.084Z,20.70
2018-08-12T03:21:33.479Z,20.70
2018-08-12T03:24:01.914Z,20.70
2018-08-12T03:26:30.230Z,20.70
2018-08-12T03:28:58.692Z,20.70
2018-08-12T03:31:27.041Z,20.70
2018-08-12T03:33:55.394Z,20.70
2018-08-12T03:36:23.882Z,20.70
2018-08-12T03:38:52.497Z,20.70
2018-08-12T03:41:20.798Z,20.60
2018-08-12T03:43:49.262Z,20.70
2018-08-12T03:46:17.678Z,20.60
2018-08-12T03:48:46.285Z,20.60
2018-08-12T03:51:14.678Z,20.50
2018-08-12T03:53:43.053Z,20.50
2018-08-12T03:56:11.418Z,20.50
2018-08-12T03:58:40.047Z,20.50
2018-08-12T04:01:08.568Z,20.40
2018-08-12T04:03:36.912Z,20.40
2018-08-12T04:06:05.359Z,20.40
2018-08-12T04:08:33.715Z,20.40
2018-08-12T04:11:02.138Z,20.40
2018-08-12T04:13:30.486Z,20.30
2018-08-12T04:15:58.838Z,20.30
2018-08-12T04:18:27.177Z,20.30
2018-08-12T04:20:55.517Z,20.30
2018-08-12T04:23:23.962Z,20.30
2018-08-12T04:25:52.321Z,20.20
2018-08-12T04:28:20.662Z,20.20
2018-08-12T04:30:49.053Z,20.20
2018-08-12T04:33:17.384Z,20.20
2018-08-12T04:35:45.786Z,20.20
2018-08-12T04:38:14.178Z,20.20
2018-08-12T04:40:42.503Z,20.20
2018-08-12T04:43:10.864Z,20.20
2018-08-12T04:45:39.201Z,20.20
2018-08-12T04:48:07.654Z,20.10
2018-08-12T04:50:36.014Z,20.20
2018-08-12T04:53:04.350Z,20.20
2018-08-12T04:55:32.702Z,20.20
2018-08-12T04:58:01.248Z,20.20
2018-08-12T05:00:29.631Z,20.20
2018-08-12T05:02:57.995Z,20.20
2018-08-12T05:05:26.432Z,20.20
2018-08-12T05:07:54.759Z,20.20
2018-08-12T05:10:23.108Z,20.20
2018-08-12T05:12:51.442Z,20.20
2018-08-12T05:15:19.785Z,20.20
2018-08-12T05:17:48.123Z,20.20
2018-08-12T05:20:16.495Z,20.20
2018-08-12T05:22:45.187Z,20.20
2018-08-12T05:25:13.639Z,20.20
2018-08-12T05:27:42.131Z,20.20
2018-08-12T05:30:11.154Z,20.20
2018-08-12T05:32:40.494Z,20.20
2018-08-12T05:35:10.190Z,20.20
2018-08-12T05:37:38.554Z,20.20
2018-08-12T05:40:08.179Z,20.20
2018-08-12T05:42:36.718Z,20.10
2018-08-12T05:45:06.040Z,20.20
2018-08-12T05:47:34.523Z,20.10
2018-08-12T05:50:02.916Z,20.20
2018-08-12T05:52:31.254Z,20.20
2018-08-12T05:54:59.622Z,20.20
2018-08-12T05:57:27.946Z,20.20
2018-08-12T05:59:56.334Z,20.20
2018-08-12T06:02:24.661Z,20.20
2018-08-12T06:04:53.023Z,20.30
2018-08-12T06:07:21.415Z,20.40
2018-08-12T06:09:49.772Z,20.30
2018-08-12T06:12:18.075Z,20.30
2018-08-12T06:14:46.375Z,20.30
2018-08-12T06:17:14.897Z,20.40
2018-08-12T06:19:43.423Z,20.40
2018-08-12T06:22:11.942Z,20.50
2018-08-12T06:24:40.327Z,20.60
2018-08-12T06:27:08.703Z,20.60
2018-08-12T06:29:37.110Z,20.60
2018-08-12T06:32:05.461Z,20.60
2018-08-12T06:34:34.029Z,20.70
2018-08-12T06:37:02.361Z,20.80
2018-08-12T06:39:30.670Z,20.90
2018-08-12T06:41:58.989Z,21.00
2018-08-12T06:44:27.352Z,21.10
2018-08-12T06:46:55.758Z,21.20
2018-08-12T06:49:24.132Z,21.30
2018-08-12T06:51:52.498Z,21.40
2018-08-12T06:54:20.871Z,21.50
2018-08-12T06:56:49.280Z,21.60
2018-08-12T06:59:17.592Z,21.70
2018-08-12T07:01:45.886Z,21.90
2018-08-12T07:04:14.318Z,22.00
2018-08-12T07:06:42.879Z,22.10
2018-08-12T07:09:11.972Z,22.30
2018-08-12T07:11:40.374Z,22.40
2018-08-12T07:14:08.917Z,22.50
2018-08-12T07:16:37.872Z,22.70
2018-08-12T07:19:07.455Z,22.80
2018-08-12T07:21:35.902Z,22.90
2018-08-12T07:24:04.494Z,23.00
2018-08-12T07:26:34.884Z,23.10
2018-08-12T07:29:03.710Z,23.20
2018-08-12T07:31:32.591Z,23.30
2018-08-12T07:34:01.502Z,23.40
2018-08-12T07:36:29.906Z,23.50
2018-08-12T07:38:58.324Z,23.60
2018-08-12T07:41:26.886Z,23.80
2018-08-12T07:43:55.343Z,23.90
2018-08-12T07:46:23.691Z,24.00
2018-08-12T07:48:53.355Z,24.10
2018-08-12T07:51:21.635Z,24.20
2018-08-12T07:53:49.971Z,24.30
2018-08-12T07:56:18.388Z,24.40
2018-08-12T07:58:46.741Z,24.50
2018-08-12T08:01:15.155Z,24.60
2018-08-12T08:03:43.707Z,24.70
2018-08-12T08:06:12.166Z,24.80
2018-08-12T08:08:40.724Z,24.90
2018-08-12T08:11:09.055Z,24.80
2018-08-12T08:13:37.584Z,24.80
2018-08-12T08:16:06.256Z,24.90
2018-08-12T08:18:35.044Z,25.00
2018-08-12T08:21:04.201Z,25.10
2018-08-12T08:23:33.925Z,25.20
2018-08-12T08:26:02.608Z,25.40
2018-08-12T08:28:31.518Z,25.50
2018-08-12T08:30:59.962Z,25.70
2018-08-12T08:33:28.567Z,25.80
2018-08-12T08:35:57.030Z,26.00
2018-08-12T08:38:25.462Z,26.10
2018-08-12T08:40:53.910Z,26.20
2018-08-12T08:43:22.282Z,26.40
2018-08-12T08:45:50.718Z,26.40
2018-08-12T08:48:19.028Z,26.20
2018-08-12T08:50:48.137Z,26.40
2018-08-12T08:53:16.498Z,26.50
2018-08-12T08:55:44.928Z,26.70
2018-08-12T08:58:13.295Z,26.80
2018-08-12T09:00:41.664Z,27.10
2018-08-12T09:03:09.962Z,27.20
2018-08-12T09:05:38.487Z,27.20
2018-08-12T09:08:06.906Z,27.40
2018-08-12T09:10:35.392Z,27.80
2018-08-12T09:13:03.794Z,28.50
2018-08-12T09:15:32.480Z,29.40
2018-08-12T09:18:00.954Z,30.60
2018-08-12T09:20:29.302Z,31.80
2018-08-12T09:22:57.752Z,33.00
2018-08-12T09:25:26.127Z,33.90
2018-08-12T09:27:54.611Z,34.80
2018-08-12T09:30:23.008Z,35.90
2018-08-12T09:32:51.416Z,36.70
2018-08-12T09:35:19.803Z,37.70
2018-08-12T09:37:48.106Z,38.90
2018-08-12T09:40:17.560Z,40.00
2018-08-12T09:42:46.968Z,41.10
2018-08-12T09:45:18.195Z,42.10
2018-08-12T09:47:46.665Z,43.10
2018-08-12T09:50:16.375Z,43.70
2018-08-12T09:52:46.554Z,43.30
2018-08-12T09:55:15.486Z,43.40
2018-08-12T09:57:45.722Z,42.90
2018-08-12T10:00:22.140Z,42.80
2018-08-12T10:02:52.115Z,42.70
2018-08-12T10:05:20.762Z,42.90
2018-08-12T10:07:49.139Z,42.90
2018-08-12T10:10:17.839Z,43.40
2018-08-12T10:12:46.527Z,44.10
2018-08-12T10:15:15.646Z,44.80
2018-08-12T10:17:46.028Z,45.60
2018-08-12T10:20:14.518Z,46.30
2018-08-12T10:22:42.996Z,46.80
2018-08-12T10:25:11.414Z,47.20
2018-08-12T10:27:39.756Z,47.20
2018-08-12T10:30:10.304Z,47.40
2018-08-12T10:32:38.978Z,47.60
2018-08-12T10:35:08.818Z,47.50
2018-08-12T10:37:37.170Z,47.20
2018-08-12T10:40:08.023Z,47.30
2018-08-12T10:42:36.538Z,47.40
2018-08-12T10:45:06.919Z,47.50
2018-08-12T10:47:35.371Z,47.70
2018-08-12T10:50:04.510Z,47.70
2018-08-12T10:52:32.991Z,47.20
2018-08-12T10:55:01.355Z,46.60
2018-08-12T10:57:29.911Z,46.50
2018-08-12T10:59:58.551Z,46.80
2018-08-12T11:02:27.090Z,46.70
2018-08-12T11:04:55.734Z,46.60
2018-08-12T11:07:24.262Z,46.00
2018-08-12T11:09:52.726Z,45.80
2018-08-12T11:12:21.451Z,46.20
2018-08-12T11:14:49.840Z,46.10
2018-08-12T11:17:18.272Z,46.10
2018-08-12T11:19:46.679Z,45.90
2018-08-12T11:22:15.048Z,45.90
2018-08-12T11:24:43.410Z,46.60
2018-08-12T11:27:13.036Z,46.70
2018-08-12T11:29:41.620Z,47.20
2018-08-12T11:32:09.972Z,48.00
2018-08-12T11:34:38.353Z,48.40
2018-08-12T11:37:06.646Z,49.00
2018-08-12T11:39:35.032Z,49.70
2018-08-12T11:42:03.543Z,50.00
2018-08-12T11:44:32.051Z,50.40
2018-08-12T11:47:00.582Z,50.00
2018-08-12T11:49:29.071Z,50.00
2018-08-12T11:51:57.551Z,50.30
2018-08-12T11:54:26.091Z,50.30
2018-08-12T11:56:54.543Z,50.30
2018-08-12T11:59:22.991Z,50.30
2018-08-12T12:01:51.564Z,50.50
2018-08-12T12:04:19.994Z,50.20
2018-08-12T12:06:48.478Z,49.40
2018-08-12T12:09:16.875Z,48.40
2018-08-12T12:11:45.554Z,48.10
2018-08-12T12:14:14.123Z,47.80
2018-08-12T12:16:42.830Z,47.60
2018-08-12T12:19:12.315Z,47.50
2018-08-12T12:24:23.022Z,48.10
2018-08-12T12:26:51.763Z,49.00
2018-08-12T12:29:20.132Z,49.40
2018-08-12T12:31:49.411Z,49.70
2018-08-12T12:34:17.793Z,50.30
2018-08-12T12:36:46.202Z,51.00
2018-08-12T12:39:15.667Z,51.30
2018-08-12T12:41:44.988Z,51.80
2018-08-12T12:44:13.392Z,52.20
2018-08-12T12:46:42.084Z,52.50
2018-08-12T12:49:11.018Z,52.70
2018-08-12T12:51:40.498Z,51.50
2018-08-12T12:54:09.500Z,50.70
2018-08-12T12:56:37.939Z,49.60
2018-08-12T12:59:06.278Z,48.40
2018-08-12T13:01:34.662Z,48.10
2018-08-12T13:04:03.148Z,48.20
2018-08-12T13:06:31.559Z,48.30
2018-08-12T13:08:59.987Z,48.90
2018-08-12T13:11:28.365Z,49.00
2018-08-12T13:13:56.762Z,49.60
2018-08-12T13:16:25.189Z,50.00
2018-08-12T13:18:53.627Z,50.60
2018-08-12T13:21:22.007Z,49.50
2018-08-12T13:23:50.359Z,48.80
2018-08-12T13:26:18.855Z,49.00
2018-08-12T13:28:47.534Z,49.40
2018-08-12T13:31:16.596Z,48.90
2018-08-12T13:33:45.091Z,48.70
2018-08-12T13:36:13.802Z,48.10
2018-08-12T13:38:42.138Z,47.80
2018-08-12T13:41:10.514Z,47.10
2018-08-12T13:43:38.953Z,45.70
2018-08-12T13:46:07.347Z,45.40
2018-08-12T13:48:35.661Z,45.40
2018-08-12T13:51:04.001Z,45.70
2018-08-12T13:53:32.514Z,45.80
2018-08-12T13:56:01.354Z,45.70
2018-08-12T13:58:29.907Z,46.00
2018-08-12T14:00:58.336Z,46.00
2018-08-12T14:03:26.713Z,46.40
2018-08-12T14:05:55.047Z,47.00
2018-08-12T14:08:23.644Z,47.50
2018-08-12T14:10:52.119Z,47.90
2018-08-12T14:13:20.815Z,48.00
2018-08-12T14:15:49.212Z,48.30
2018-08-12T14:18:18.648Z,48.10
2018-08-12T14:20:46.979Z,48.40
2018-08-12T14:23:15.735Z,48.80
2018-08-12T14:25:44.123Z,49.00
2018-08-12T14:28:12.491Z,48.90
2018-08-12T14:30:41.006Z,48.60
2018-08-12T14:33:09.547Z,47.90
2018-08-12T14:35:37.913Z,47.20
2018-08-12T14:38:07.399Z,46.50
2018-08-12T14:40:35.825Z,45.60
2018-08-12T14:43:04.403Z,44.70
2018-08-12T14:45:32.998Z,43.80
2018-08-12T14:48:01.767Z,42.90
2018-08-12T14:50:30.511Z,42.10
2018-08-12T14:52:58.959Z,41.30
2018-08-12T14:55:27.751Z,40.50
2018-08-12T14:57:56.281Z,39.70
2018-08-12T15:00:24.618Z,38.50
2018-08-12T15:02:53.395Z,37.70
2018-08-12T15:05:21.972Z,37.20
2018-08-12T15:07:50.429Z,36.70
2018-08-12T15:10:18.734Z,36.30
2018-08-12T15:12:47.167Z,35.90
2018-08-12T15:15:16.627Z,35.40
2018-08-12T15:17:45.703Z,35.00
2018-08-12T15:20:15.288Z,34.50
2018-08-12T15:22:44.762Z,34.30
2018-08-12T15:25:15.886Z,34.20
2018-08-12T15:27:44.492Z,34.10
2018-08-12T15:30:12.867Z,34.00
2018-08-12T15:32:41.285Z,33.90
2018-08-12T15:35:10.134Z,33.80
2018-08-12T15:37:39.014Z,33.60
2018-08-12T15:40:09.988Z,33.50
2018-08-12T15:42:38.695Z,33.40
2018-08-12T15:45:10.135Z,33.30
2018-08-12T15:47:39.149Z,33.10
2018-08-12T15:50:08.752Z,33.00
2018-08-12T15:52:37.091Z,32.90
2018-08-12T15:55:05.696Z,32.80
2018-08-12T15:57:34.296Z,32.70
2018-08-12T16:00:02.832Z,32.70
2018-08-12T16:02:31.335Z,32.70
2018-08-12T16:05:00.772Z,32.70
2018-08-12T16:07:29.587Z,32.60
2018-08-12T16:09:58.090Z,32.50
2018-08-12T16:12:26.607Z,32.50
2018-08-12T16:14:55.267Z,32.40
2018-08-12T16:17:23.674Z,32.40
2018-08-12T16:19:52.144Z,32.30
2018-08-12T16:22:20.500Z,32.20
2018-08-12T16:24:48.832Z,32.10
2018-08-12T16:27:17.223Z,32.00
2018-08-12T16:29:45.580Z,32.00
2018-08-12T16:32:13.903Z,31.90
2018-08-12T16:34:42.284Z,31.80
2018-08-12T16:37:10.771Z,31.80
2018-08-12T16:39:39.212Z,31.70
2018-08-12T16:42:07.592Z,31.70
2018-08-12T16:44:35.919Z,31.70
2018-08-12T16:47:04.786Z,31.60
2018-08-12T16:49:33.570Z,31.60
2018-08-12T16:52:02.435Z,31.60
2018-08-12T16:54:30.798Z,31.40
2018-08-12T16:56:59.630Z,31.30
2018-08-12T16:59:28.675Z,31.30
2018-08-12T17:01:57.030Z,31.20
2018-08-12T17:04:26.235Z,31.10
2018-08-12T17:06:55.022Z,31.10
2018-08-12T17:09:24.890Z,31.00
2018-08-12T17:11:54.472Z,30.90
2018-08-12T17:14:23.170Z,30.80
2018-08-12T17:16:51.544Z,30.70
2018-08-12T17:19:20.184Z,30.60
2018-08-12T17:21:48.869Z,30.60
2018-08-12T17:24:17.366Z,30.50
2018-08-12T17:26:45.986Z,30.50
2018-08-12T17:29:14.335Z,30.50
2018-08-12T17:31:42.846Z,30.50
2018-08-12T17:34:11.393Z,30.50
2018-08-12T17:36:39.796Z,30.50
2018-08-12T17:39:09.504Z,30.50
2018-08-12T17:41:37.915Z,30.50
2018-08-12T17:44:06.303Z,30.40
2018-08-12T17:46:34.651Z,30.40
2018-08-12T17:49:03.038Z,30.40
2018-08-12T17:51:31.451Z,30.40
2018-08-12T17:54:00.362Z,30.40
2018-08-12T17:56:29.343Z,30.40
2018-08-12T17:58:58.402Z,30.40
2018-08-12T18:01:27.511Z,30.30
2018-08-12T18:03:56.216Z,30.30
2018-08-12T18:06:24.687Z,30.20
2018-08-12T18:08:53.291Z,30.30
2018-08-12T18:11:22.210Z,30.20
2018-08-12T18:13:51.427Z,30.20
2018-08-12T18:16:20.571Z,30.20
2018-08-12T18:18:49.914Z,30.20
2018-08-12T18:21:18.338Z,30.10
2018-08-12T18:23:46.755Z,30.10
2018-08-12T18:26:15.091Z,30.10
2018-08-12T18:28:43.446Z,30.00
2018-08-12T18:31:11.769Z,30.00
2018-08-12T18:33:40.251Z,30.00
2018-08-12T18:36:08.635Z,29.90
2018-08-12T18:38:37.047Z,29.90
2018-08-12T18:41:05.362Z,29.80
2018-08-12T18:43:33.704Z,29.80
2018-08-12T18:46:02.011Z,29.70
2018-08-12T18:48:30.571Z,29.60
2018-08-12T18:50:59.001Z,29.60
2018-08-12T18:53:27.335Z,29.50
2018-08-12T18:55:55.719Z,29.50
2018-08-12T18:58:24.046Z,29.40
2018-08-12T19:00:52.415Z,29.40
2018-08-12T19:03:20.978Z,29.30
2018-08-12T19:05:49.413Z,29.30
2018-08-12T19:08:17.795Z,29.20
2018-08-12T19:10:46.102Z,29.10
2018-08-12T19:13:14.572Z,29.10
2018-08-12T19:15:42.910Z,29.00
2018-08-12T19:18:11.412Z,28.90
2018-08-12T19:20:39.779Z,28.80
2018-08-12T19:23:08.162Z,28.80
2018-08-12T19:25:36.798Z,28.70
2018-08-12T19:28:05.548Z,28.70
2018-08-12T19:30:33.948Z,28.60
2018-08-12T19:33:02.417Z,28.50
2018-08-12T19:35:30.731Z,28.50
2018-08-12T19:37:59.227Z,28.40
2018-08-12T19:40:27.626Z,28.40
2018-08-12T19:42:57.903Z,28.30
2018-08-12T19:45:26.528Z,28.30
2018-08-12T19:47:55.203Z,28.20
2018-08-12T19:50:24.032Z,28.20
2018-08-12T19:52:52.627Z,28.10
2018-08-12T19:55:21.050Z,28.00
2018-08-12T19:57:49.443Z,27.90
2018-08-12T20:00:18.109Z,27.90
2018-08-12T20:02:46.418Z,27.80
2018-08-12T20:05:14.947Z,27.70
2018-08-12T20:07:43.458Z,27.70
2018-08-12T20:10:12.855Z,27.60
2018-08-12T20:12:41.367Z,27.60
2018-08-12T20:15:11.108Z,27.60
2018-08-12T20:17:40.065Z,27.50
2018-08-12T20:20:10.710Z,27.50
2018-08-12T20:22:39.180Z,27.40
2018-08-12T20:25:07.815Z,27.40
2018-08-12T20:27:37.318Z,27.40
2018-08-12T20:30:07.764Z,27.30
2018-08-12T20:32:36.120Z,27.30
2018-08-12T20:35:04.783Z,27.30
2018-08-12T20:37:33.347Z,27.20
2018-08-12T20:40:03.163Z,27.20
2018-08-12T20:42:33.062Z,27.20
2018-08-12T20:45:01.416Z,27.20
2018-08-12T20:47:29.991Z,27.10
2018-08-12T20:49:58.473Z,27.10
2018-08-12T20:52:27.319Z,27.00
2018-08-12T20:54:57.061Z,27.00
2018-08-12T20:57:25.442Z,27.00
2018-08-12T20:59:53.774Z,27.00
2018-08-12T21:02:22.144Z,26.90
2018-08-12T21:04:50.528Z,26.90
2018-08-12T21:07:18.906Z,26.80
2018-08-12T21:09:47.232Z,26.70
2018-08-12T21:12:15.825Z,26.70
2018-08-12T21:14:44.126Z,26.70
2018-08-12T21:17:12.759Z,26.70
2018-08-12T21:19:41.177Z,26.60
2018-08-12T21:22:09.612Z,26.60
2018-08-12T21:24:37.973Z,26.60
2018-08-12T21:27:06.359Z,26.50
2018-08-12T21:29:34.912Z,26.50
2018-08-12T21:32:03.328Z,26.40
2018-08-12T21:34:31.751Z,26.40
2018-08-12T21:37:00.213Z,26.30
2018-08-12T21:39:28.637Z,26.20
2018-08-12T21:41:56.980Z,26.20
2018-08-12T21:44:25.327Z,26.20
2018-08-12T21:46:53.682Z,26.20
2018-08-12T21:49:22.026Z,26.10
2018-08-12T21:51:51.209Z,26.10
2018-08-12T21:54:19.589Z,26.10
2018-08-12T21:56:48.048Z,26.00
2018-08-12T21:59:16.460Z,26.00
2018-08-12T22:01:45.358Z,26.00
2018-08-12T22:04:13.678Z,26.00
2018-08-12T22:06:42.068Z,25.90
2018-08-12T22:09:11.239Z,25.90
2018-08-12T22:11:39.848Z,25.90
2018-08-12T22:14:08.429Z,25.90
2018-08-12T22:16:36.969Z,25.80
2018-08-12T22:19:05.640Z,25.80
2018-08-12T22:21:33.975Z,25.70
2018-08-12T22:24:02.329Z,25.70
2018-08-12T22:26:30.758Z,25.70
2018-08-12T22:28:59.115Z,25.60
2018-08-12T22:31:27.567Z,25.60
2018-08-12T22:33:55.861Z,25.60
2018-08-12T22:36:24.248Z,25.60
2018-08-12T22:38:52.606Z,25.50
2018-08-12T22:41:20.933Z,25.50
2018-08-12T22:43:49.258Z,25.50
2018-08-12T22:46:17.603Z,25.40
2018-08-12T22:48:46.343Z,25.40
2018-08-12T22:51:14.655Z,25.40
2018-08-12T22:53:43.070Z,25.40
2018-08-12T22:56:11.429Z,25.40
2018-08-12T22:58:39.772Z,25.30
2018-08-12T23:01:08.827Z,25.30
2018-08-12T23:03:37.328Z,25.30
2018-08-12T23:06:05.941Z,25.20
2018-08-12T23:08:34.296Z,25.20
2018-08-12T23:11:02.752Z,25.20
2018-08-12T23:13:31.151Z,25.20
2018-08-12T23:16:13.835Z,25.20
2018-08-12T23:18:42.323Z,25.20
2018-08-12T23:21:12.987Z,25.20
2018-08-12T23:23:43.344Z,25.10
2018-08-12T23:26:13.429Z,25.10
2018-08-12T23:28:41.927Z,25.10
2018-08-12T23:31:10.301Z,25.10
2018-08-12T23:33:39.026Z,25.10
2018-08-12T23:36:07.530Z,25.10
2018-08-12T23:38:36.310Z,25.10
2018-08-12T23:41:04.906Z,25.00
2018-08-12T23:43:33.386Z,25.00
2018-08-12T23:46:01.751Z,25.00
2018-08-12T23:48:30.947Z,25.00
2018-08-12T23:50:59.697Z,24.90
2018-08-12T23:53:28.209Z,24.90
2018-08-12T23:55:56.574Z,24.90
2018-08-12T23:58:25.086Z,24.80
